Time;durP1;ratioP1;P1;durP2;ratioP2;P2;SDS_P1;SDS_P2;PMS_P1;PMS_P2;Temp;Humidity;BMP_temperature;BMP_pressure;BME280_temperature;BME280_humidity;BME280_pressure;Samples;Min_cycle;Max_cycle;Signal;HPM_P1;HPM_P2
2023/03/15 00:00:03;;;;;;;;;7.00;6.50;;;;;9.97;56.38;101084.38;2095653;28;45068;-68
2023/03/15 00:01:13;;;;;;;;;5.40;5.00;;;;;9.97;56.45;101093.19;2081103;28;46882;-68
2023/03/15 00:02:13;;;;;;;;;6.60;5.20;;;;;9.97;56.55;101092.31;2095644;27;46531;-67
2023/03/15 00:03:14;;;;;;;;;8.75;8.00;;;;;9.94;56.46;101090.59;2113710;27;46869;-69
2023/03/15 00:04:15;;;;;;;;;6.00;6.00;;;;;9.95;56.48;101089.69;2113664;27;46420;-68
2023/03/15 00:05:15;;;;;;;;;7.75;7.75;;;;;9.95;56.40;101086.16;2112720;27;45826;-67
2023/03/15 00:06:16;;;;;;;;;6.00;6.00;;;;;9.95;56.33;101092.34;2104864;28;45867;-68
2023/03/15 00:07:16;;;;;;;;;4.00;4.00;;;;;9.95;56.30;101083.50;2104781;28;46772;-69
2023/03/15 00:08:17;;;;;;;;;6.50;6.00;;;;;9.94;56.41;101085.28;2113731;27;46220;-69
2023/03/15 00:09:17;;;;;;;;;6.00;6.00;;;;;9.92;56.14;101097.69;2112631;27;47283;-68
2023/03/15 00:10:18;;;;;;;;;8.50;7.00;;;;;9.91;56.47;101097.69;2112359;27;46571;-70
2023/03/15 00:11:18;;;;;;;;;9.25;8.25;;;;;9.90;56.41;101083.56;2113669;27;45708;-68
2023/03/15 00:12:21;;;;;;;;;5.00;5.00;;;;;9.90;56.31;101088.84;2112528;27;46358;-68
2023/03/15 00:13:22;;;;;;;;;7.60;7.60;;;;;9.88;56.34;101095.09;2112366;27;46677;-68
2023/03/15 00:14:22;;;;;;;;;9.75;8.25;;;;;9.87;56.54;101093.34;2114162;27;46946;-68
2023/03/15 00:15:22;;;;;;;;;7.00;6.00;;;;;9.87;56.41;101093.34;2108063;27;46464;-69
2023/03/15 00:16:26;;;;;;;;;5.00;5.00;;;;;9.85;56.69;101089.81;2097819;28;46239;-67
2023/03/15 00:17:26;;;;;;;;;7.00;6.40;;;;;9.85;56.66;101076.56;2110984;27;45661;-68
2023/03/15 00:18:27;;;;;;;;;8.25;6.50;;;;;9.85;56.60;101087.19;2110178;27;45907;-68
2023/03/15 00:19:27;;;;;;;;;6.25;6.25;;;;;9.84;56.39;101081.00;2114117;27;46408;-68
2023/03/15 00:20:28;;;;;;;;;5.00;5.00;;;;;9.84;56.47;101086.31;2101030;28;46911;-68
2023/03/15 00:21:29;;;;;;;;;5.00;5.00;;;;;9.84;56.75;101075.69;2101913;28;46446;-68
2023/03/15 00:22:29;;;;;;;;;3.50;3.50;;;;;9.84;56.71;101081.00;2113558;27;45874;-68
2023/03/15 00:23:30;;;;;;;;;5.75;4.50;;;;;9.85;57.08;101084.53;2104258;28;45643;-68
2023/03/15 00:24:30;;;;;;;;;3.80;3.80;;;;;9.83;56.68;101083.66;2103356;28;46925;-68
2023/03/15 00:25:31;;;;;;;;;6.00;6.00;;;;;9.83;56.72;101086.31;2111501;27;46568;-69
2023/03/15 00:26:31;;;;;;;;;6.00;5.50;;;;;9.83;56.77;101079.25;2101056;28;46066;-69
2023/03/15 00:27:32;;;;;;;;;6.25;6.00;;;;;9.83;56.87;101084.56;2104781;28;46255;-68
2023/03/15 00:28:32;;;;;;;;;4.50;4.50;;;;;9.84;56.80;101085.44;2109118;27;46955;-68
2023/03/15 00:29:32;;;;;;;;;5.50;5.50;;;;;9.84;56.72;101082.78;2110614;27;46604;-69
2023/03/15 00:30:33;;;;;;;;;7.00;6.00;;;;;9.82;56.99;101082.78;2108105;27;46694;-69
2023/03/15 00:31:34;;;;;;;;;5.75;5.75;;;;;9.84;56.76;101090.72;2112438;27;45616;-69
2023/03/15 00:32:35;;;;;;;;;6.00;5.60;;;;;9.84;57.00;101083.66;2111970;27;45328;-67
2023/03/15 00:33:35;;;;;;;;;6.75;6.75;;;;;9.83;56.88;101089.84;2112073;27;45033;-68
2023/03/15 00:34:35;;;;;;;;;5.75;5.75;;;;;9.85;56.97;101087.19;2101060;28;48242;-69
2023/03/15 00:35:41;;;;;;;;;7.25;7.00;;;;;9.86;57.04;101087.16;2104515;28;46174;-68
2023/03/15 00:36:42;;;;;;;;;5.20;2.80;;;;;9.87;57.18;101088.03;2104483;28;46368;-67
2023/03/15 00:37:43;;;;;;;;;6.00;6.00;;;;;9.87;57.25;101078.31;2100730;27;45820;-68
2023/03/15 00:38:43;;;;;;;;;6.00;4.50;;;;;9.89;56.80;101087.09;2095312;28;46830;-68
2023/03/15 00:39:46;;;;;;;;;8.00;7.00;;;;;9.90;57.13;101082.69;2091992;28;46365;-68
2023/03/15 00:40:47;;;;;;;;;8.40;7.20;;;;;9.92;57.23;101078.25;2092691;28;46177;-68
2023/03/15 00:41:47;;;;;;;;;8.00;6.75;;;;;9.93;57.03;101083.53;2094641;28;46380;-68
2023/03/15 00:42:49;;;;;;;;;5.75;5.75;;;;;9.94;56.86;101081.75;2091880;28;46780;-68
2023/03/15 00:43:50;;;;;;;;;7.60;6.00;;;;;9.93;56.73;101082.66;2093960;28;46670;-68
2023/03/15 00:44:50;;;;;;;;;7.20;6.40;;;;;9.93;57.03;101082.66;2093537;28;46361;-67
2023/03/15 00:45:50;;;;;;;;;8.00;6.50;;;;;9.93;57.04;101083.53;2083581;28;45441;-68
2023/03/15 00:46:51;;;;;;;;;6.00;5.50;;;;;9.94;56.76;101084.41;2087101;28;46274;-68
2023/03/15 00:47:53;;;;;;;;;5.50;5.50;;;;;9.96;56.85;101085.28;2066694;28;45687;-68
2023/03/15 00:48:53;;;;;;;;;6.00;6.00;;;;;9.95;57.11;101087.03;2067720;28;46570;-69
2023/03/15 00:49:54;;;;;;;;;3.25;3.25;;;;;9.96;56.82;101087.91;2095561;28;45545;-69
2023/03/15 00:51:23;;;;;;;;;5.00;5.00;;;;;9.93;57.03;101088.84;2094786;28;45517;-69
2023/03/15 00:52:23;;;;;;;;;5.40;5.40;;;;;9.94;57.19;101085.28;2076722;28;46694;-69
2023/03/15 00:53:24;;;;;;;;;6.00;6.00;;;;;9.94;57.06;101087.06;2079191;28;46546;-68
2023/03/15 00:54:24;;;;;;;;;5.00;5.00;;;;;9.94;57.03;101087.06;2073092;28;45115;-68
2023/03/15 00:55:25;;;;;;;;;3.25;3.25;;;;;9.93;57.18;101087.97;2070644;28;46606;-68
2023/03/15 00:56:28;;;;;;;;;6.00;6.00;;;;;9.93;57.05;101093.25;2071147;28;46170;-69
2023/03/15 00:57:32;;;;;;;;;5.00;5.00;;;;;9.92;57.13;101092.38;2062418;28;45976;-69
2023/03/15 00:58:32;;;;;;;;;6.00;4.60;;;;;9.91;56.85;101092.38;2063405;28;46768;-70
2023/03/15 00:59:34;;;;;;;;;6.25;5.50;;;;;9.89;56.96;101099.47;2070745;28;46442;-69
2023/03/15 01:00:34;;;;;;;;;6.00;6.00;;;;;9.87;57.14;101091.56;2071543;28;45808;-69
2023/03/15 01:01:34;;;;;;;;;7.33;5.33;;;;;9.85;57.02;101093.34;2070991;28;46453;-68
2023/03/15 01:02:36;;;;;;;;;4.75;4.75;;;;;9.85;57.03;101095.13;2062888;28;45315;-68
2023/03/15 01:03:37;;;;;;;;;8.60;4.80;;;;;9.83;57.33;101094.28;2062097;28;46051;-68
2023/03/15 01:04:38;;;;;;;;;9.80;9.80;;;;;9.82;57.20;101101.34;2062637;28;46020;-69
2023/03/15 01:05:38;;;;;;;;;15.25;8.75;;;;;9.82;56.98;101103.13;2059107;28;45932;-68
2023/03/15 01:06:41;;;;;;;;;4.50;4.50;;;;;9.80;57.30;101105.81;2063033;28;46177;-68
2023/03/15 01:07:44;;;;;;;;;12.60;11.40;;;;;9.79;57.27;101097.88;2070949;28;45326;-68
2023/03/15 01:08:45;;;;;;;;;10.80;9.60;;;;;9.78;57.51;101102.25;2070644;28;46733;-68
2023/03/15 01:09:45;;;;;;;;;5.75;5.75;;;;;9.79;57.47;101101.41;2062518;28;46752;-68
2023/03/15 01:10:46;;;;;;;;;5.00;4.50;;;;;9.79;57.36;101103.16;2083143;28;46160;-68
2023/03/15 01:11:46;;;;;;;;;7.25;6.75;;;;;9.78;57.55;101107.56;2087327;28;45560;-69
2023/03/15 01:12:46;;;;;;;;;5.33;4.00;;;;;9.77;57.36;101105.81;2078893;28;46482;-69
2023/03/15 01:13:47;;;;;;;;;4.67;4.67;;;;;9.76;57.28;101114.66;2078843;28;46714;-68
2023/03/15 01:14:47;;;;;;;;;5.50;5.50;;;;;9.74;57.27;101103.22;2078474;28;46244;-69
2023/03/15 01:15:47;;;;;;;;;5.67;5.67;;;;;9.74;57.51;101111.16;2081867;28;46158;-68
2023/03/15 01:16:48;;;;;;;;;3.67;3.67;;;;;9.74;57.67;101119.97;2085951;28;45702;-68
2023/03/15 01:17:48;;;;;;;;;6.00;5.00;;;;;9.73;57.48;101112.94;2087112;28;46621;-67
2023/03/15 01:18:50;;;;;;;;;8.33;5.33;;;;;9.75;57.52;101120.88;2090964;28;45812;-68
2023/03/15 01:19:50;;;;;;;;;5.00;5.00;;;;;9.76;57.41;101119.09;2095675;28;46548;-68
2023/03/15 01:20:51;;;;;;;;;4.00;4.00;;;;;9.77;57.65;101112.88;2088380;28;46797;-68
2023/03/15 01:21:52;;;;;;;;;6.25;6.25;;;;;9.75;57.38;101112.91;2086559;28;46408;-68
2023/03/15 01:22:52;;;;;;;;;6.00;6.00;;;;;9.76;57.52;101119.97;2095683;28;46747;-68
2023/03/15 01:23:53;;;;;;;;;4.50;4.50;;;;;9.77;57.40;101118.19;2087340;28;46489;-68
2023/03/15 01:24:53;;;;;;;;;4.50;4.50;;;;;9.76;57.18;101119.97;2086789;28;46691;-68
2023/03/15 01:25:53;;;;;;;;;5.75;5.75;;;;;9.74;57.49;101119.09;2087469;28;46183;-67
2023/03/15 01:26:54;;;;;;;;;4.00;4.00;;;;;9.76;57.44;101129.69;2088962;28;46450;-68
2023/03/15 01:27:54;;;;;;;;;5.25;5.25;;;;;9.72;57.23;101116.47;2087427;28;45493;-69
2023/03/15 01:28:54;;;;;;;;;5.00;5.00;;;;;9.72;57.25;101115.59;2086940;28;46918;-68
2023/03/15 01:29:55;;;;;;;;;6.25;5.50;;;;;9.71;57.24;101117.38;2096207;28;46713;-68
2023/03/15 01:30:56;;;;;;;;;4.33;4.00;;;;;9.70;57.36;101128.00;2096066;28;46221;-69
2023/03/15 01:31:56;;;;;;;;;5.75;5.75;;;;;9.68;57.21;101119.19;2110387;27;46270;-68
2023/03/15 01:32:56;;;;;;;;;5.00;5.00;;;;;9.66;57.25;101121.88;2111387;27;46222;-67
2023/03/15 01:33:58;;;;;;;;;4.33;4.33;;;;;9.63;57.15;101118.34;2113598;27;46273;-67
2023/03/15 01:34:58;;;;;;;;;4.50;4.50;;;;;9.63;57.40;101115.69;2112468;27;46262;-68
2023/03/15 01:36:06;;;;;;;;;5.00;4.67;;;;;9.62;57.46;101124.56;2112949;27;46740;-67
2023/03/15 01:37:07;;;;;;;;;4.00;4.00;;;;;9.63;57.33;101121.00;2096355;28;46300;-68
2023/03/15 01:38:07;;;;;;;;;5.25;4.25;;;;;9.62;57.28;101119.25;2100342;27;46131;-68
2023/03/15 01:39:08;;;;;;;;;4.25;4.25;;;;;9.61;57.17;101115.72;2104729;28;46200;-68
2023/03/15 01:40:12;;;;;;;;;5.33;5.33;;;;;9.60;57.30;101121.91;2095162;28;46538;-68
2023/03/15 01:41:13;;;;;;;;;4.00;3.00;;;;;9.61;57.56;101114.84;2095223;28;46473;-69
2023/03/15 01:42:14;;;;;;;;;7.00;7.00;;;;;9.62;57.50;101119.25;2096438;28;46430;-68
2023/03/15 01:43:20;;;;;;;;;6.00;6.00;;;;;9.61;57.74;101121.03;2102660;28;46208;-67
2023/03/15 01:44:20;;;;;;;;;8.20;8.20;;;;;9.60;57.84;101121.91;2104455;28;46511;-69
2023/03/15 01:45:55;;;;;;;;;7.50;7.50;;;;;9.60;57.74;101121.03;2105027;28;45631;-68
2023/03/15 01:46:55;;;;;;;;;8.80;7.20;;;;;9.61;57.87;101128.09;2104365;28;46784;-67
2023/03/15 01:47:56;;;;;;;;;8.00;8.00;;;;;9.61;57.87;101128.97;2104798;28;45927;-69
2023/03/15 01:49:17;;;;;;;;;7.75;7.25;;;;;9.61;57.77;101131.63;2103965;28;46399;-69
2023/03/15 01:50:18;;;;;;;;;8.80;8.80;;;;;9.59;57.89;101133.41;2104365;27;45788;-69
2023/03/15 01:51:21;;;;;;;;;8.75;8.75;;;;;9.60;57.91;101127.22;2103161;28;46366;-67
2023/03/15 01:52:29;;;;;;;;;11.20;11.20;;;;;9.59;58.10;101130.78;2104115;27;46556;-68
2023/03/15 01:53:31;;;;;;;;;9.60;9.60;;;;;9.59;58.12;101128.13;2107294;27;45686;-68
2023/03/15 01:54:40;;;;;;;;;9.00;9.00;;;;;9.58;58.40;101131.66;2105256;27;46274;-69
2023/03/15 01:55:41;;;;;;;;;7.40;7.00;;;;;9.56;58.15;101130.81;2096591;28;46753;-69
2023/03/15 01:56:48;;;;;;;;;9.00;9.00;;;;;9.55;58.21;101125.53;2093782;28;45697;-68
2023/03/15 01:57:50;;;;;;;;;13.00;10.40;;;;;9.54;58.31;101126.44;2092800;28;45668;-68
2023/03/15 01:58:53;;;;;;;;;9.40;8.80;;;;;9.55;58.14;101129.06;2097612;28;45726;-68
2023/03/15 02:00:16;;;;;;;;;13.60;10.80;;;;;9.54;58.43;101127.31;2111012;27;46599;-67
2023/03/15 02:01:19;;;;;;;;;11.20;11.20;;;;;9.55;58.32;101125.53;2110835;27;45205;-68
2023/03/15 02:02:22;;;;;;;;;14.00;10.40;;;;;9.54;58.28;101129.94;2105571;27;46836;-67
2023/03/15 02:03:29;;;;;;;;;13.00;10.60;;;;;9.54;58.28;101129.94;2109969;27;46182;-67
2023/03/15 02:04:37;;;;;;;;;10.40;9.20;;;;;9.53;58.04;101129.94;2110191;27;46825;-68
2023/03/15 02:05:44;;;;;;;;;8.80;8.80;;;;;9.52;58.08;101123.75;2105353;27;45811;-69
2023/03/15 02:06:49;;;;;;;;;11.20;11.20;;;;;9.52;58.40;101128.19;2108520;27;46882;-68
2023/03/15 02:07:53;;;;;;;;;10.40;10.40;;;;;9.52;58.29;101131.72;2109685;27;46589;-68
2023/03/15 02:08:57;;;;;;;;;10.20;10.20;;;;;9.52;58.63;101129.06;2106165;27;46043;-68
2023/03/15 02:10:12;;;;;;;;;9.60;6.80;;;;;9.53;58.21;101128.19;2108264;27;46071;-68
2023/03/15 02:11:12;;;;;;;;;11.60;10.20;;;;;9.53;58.35;101122.91;2110417;27;45898;-68
2023/03/15 02:12:13;;;;;;;;;10.25;9.25;;;;;9.53;58.25;101127.28;2105962;27;46813;-67
2023/03/15 02:13:17;;;;;;;;;7.50;7.50;;;;;9.52;58.12;101130.84;2108362;27;45747;-68
2023/03/15 02:14:18;;;;;;;;;9.60;8.60;;;;;9.50;58.34;101129.97;2104411;27;45712;-69
2023/03/15 02:15:18;;;;;;;;;8.00;8.00;;;;;9.48;58.15;101129.13;2103083;28;45928;-69
2023/03/15 02:16:20;;;;;;;;;11.00;9.25;;;;;9.47;58.27;101130.03;2099359;27;46219;-68
2023/03/15 02:17:28;;;;;;;;;7.20;7.20;;;;;9.45;58.36;101127.41;2109862;27;46467;-68
2023/03/15 02:18:28;;;;;;;;;7.40;7.40;;;;;9.43;58.01;101121.25;2106871;27;45217;-68
2023/03/15 02:19:44;;;;;;;;;9.25;9.25;;;;;9.41;58.25;101121.25;2111108;27;46869;-68
2023/03/15 02:21:03;;;;;;;;;8.80;7.00;;;;;9.40;58.48;101127.44;2102252;28;45616;-68
2023/03/15 02:22:20;;;;;;;;;9.00;6.40;;;;;9.40;58.35;101122.16;2102126;27;46453;-68
2023/03/15 02:23:21;;;;;;;;;10.60;8.80;;;;;9.40;58.15;101119.50;2097728;28;47261;-68
2023/03/15 02:24:36;;;;;;;;;8.20;8.20;;;;;9.42;58.08;101123.00;2101634;28;45152;-67
2023/03/15 02:25:57;;;;;;;;;6.00;6.00;;;;;9.41;58.07;101120.38;2111437;27;45214;-68
2023/03/15 02:26:58;;;;;;;;;11.20;9.80;;;;;9.40;58.22;101118.59;2099889;28;48145;-67
2023/03/15 02:28:00;;;;;;;;;8.75;8.00;;;;;9.41;58.21;101120.38;2099283;28;46623;-69
2023/03/15 02:29:01;;;;;;;;;7.80;7.40;;;;;9.39;58.31;101117.72;2112321;27;46479;-68
2023/03/15 02:30:02;;;;;;;;;8.25;8.25;;;;;9.39;58.38;101122.13;2106643;27;46289;-69
2023/03/15 02:31:03;;;;;;;;;8.20;7.00;;;;;9.39;58.27;101116.84;2104503;28;46469;-68
2023/03/15 02:32:04;;;;;;;;;9.50;8.00;;;;;9.40;58.54;101126.53;2111168;27;46370;-69
2023/03/15 02:33:09;;;;;;;;;8.25;8.25;;;;;9.40;58.39;101124.81;2112437;27;46701;-68
2023/03/15 02:34:10;;;;;;;;;6.80;6.80;;;;;9.42;58.49;101127.44;2110692;27;45658;-68
2023/03/15 02:35:10;;;;;;;;;8.75;6.00;;;;;9.40;58.40;101124.81;2110019;27;47094;-68
2023/03/15 02:36:19;;;;;;;;;9.00;8.25;;;;;9.40;58.24;101124.81;2111941;27;46380;-68
2023/03/15 02:37:20;;;;;;;;;9.40;8.40;;;;;9.39;58.13;101116.84;2095090;28;45633;-69
2023/03/15 02:38:23;;;;;;;;;2.80;2.80;;;;;9.39;58.15;101122.13;2100911;27;46163;-67
2023/03/15 02:39:24;;;;;;;;;7.80;7.00;;;;;9.36;58.30;101120.41;2108196;27;45801;-68
2023/03/15 02:40:27;;;;;;;;;6.50;5.75;;;;;9.37;58.22;101121.28;2112222;27;45404;-67
2023/03/15 02:41:39;;;;;;;;;8.20;6.40;;;;;9.36;58.13;101116.88;2109281;27;46568;-68
2023/03/15 02:42:41;;;;;;;;;6.40;6.40;;;;;9.36;58.32;101117.75;2107985;27;46549;-68
2023/03/15 02:43:42;;;;;;;;;7.60;6.00;;;;;9.36;58.07;101116.88;2111574;27;46846;-68
2023/03/15 02:44:44;;;;;;;;;5.60;4.40;;;;;9.35;58.22;101113.34;2109464;27;45820;-68
2023/03/15 02:45:46;;;;;;;;;5.00;5.00;;;;;9.35;58.10;101116.00;2108093;27;45049;-68
2023/03/15 02:46:49;;;;;;;;;7.00;6.20;;;;;9.33;57.75;101114.28;2112697;27;45160;-69
2023/03/15 02:47:50;;;;;;;;;5.60;5.00;;;;;9.30;58.00;101114.31;2108364;27;46464;-68
2023/03/15 02:48:53;;;;;;;;;5.00;5.00;;;;;9.29;57.87;101110.78;2108654;27;46704;-68
2023/03/15 02:49:53;;;;;;;;;8.40;7.80;;;;;9.27;58.23;101109.91;2093691;28;46416;-69
2023/03/15 02:50:53;;;;;;;;;5.50;5.50;;;;;9.25;58.00;101110.81;2081080;28;46508;-67
2023/03/15 02:51:54;;;;;;;;;4.33;4.00;;;;;9.25;58.12;101111.69;2084499;28;46556;-69
2023/03/15 02:52:54;;;;;;;;;5.00;5.00;;;;;9.25;57.88;101118.75;2092603;28;45959;-68
2023/03/15 02:53:55;;;;;;;;;3.00;3.00;;;;;9.24;58.02;101114.34;2091387;28;46362;-68
2023/03/15 02:54:55;;;;;;;;;4.00;4.00;;;;;9.23;58.20;101117.91;2087968;28;46772;-69
2023/03/15 02:55:56;;;;;;;;;5.50;5.50;;;;;9.21;57.98;101120.56;2074277;28;46673;-68
2023/03/15 02:56:56;;;;;;;;;5.20;5.20;;;;;9.21;57.94;101117.03;2084919;28;46649;-68
2023/03/15 02:57:58;;;;;;;;;6.75;6.75;;;;;9.21;57.98;101117.03;2094514;28;46323;-68
2023/03/15 02:58:59;;;;;;;;;9.20;8.40;;;;;9.22;57.90;101124.09;2091087;28;46081;-68
2023/03/15 03:00:05;;;;;;;;;6.25;5.00;;;;;9.22;57.89;101114.38;2094339;28;46714;-68
2023/03/15 03:01:07;;;;;;;;;5.50;5.50;;;;;9.24;58.02;101120.53;2093987;28;46064;-68
2023/03/15 03:02:10;;;;;;;;;4.20;4.20;;;;;9.24;57.96;101120.53;2090988;28;46947;-68
2023/03/15 03:03:10;;;;;;;;;3.80;3.80;;;;;9.25;57.83;101124.06;2094469;28;46560;-68
2023/03/15 03:04:11;;;;;;;;;4.00;4.00;;;;;9.24;57.88;101114.34;2084069;28;46262;-67
2023/03/15 03:05:13;;;;;;;;;4.33;4.00;;;;;9.24;57.94;101120.53;2082907;28;46645;-68
2023/03/15 03:06:16;;;;;;;;;4.40;4.40;;;;;9.24;57.77;101125.81;2095903;28;46241;-68
2023/03/15 03:07:17;;;;;;;;;4.00;4.00;;;;;9.21;57.68;101128.50;2091559;28;45663;-68
2023/03/15 03:08:18;;;;;;;;;4.60;4.60;;;;;9.20;57.54;101129.41;2092217;28;45634;-69
2023/03/15 03:09:18;;;;;;;;;3.67;3.67;;;;;9.18;57.77;101128.56;2094841;28;45683;-69
2023/03/15 03:10:19;;;;;;;;;4.00;4.00;;;;;9.18;57.54;101131.19;2090355;28;46482;-69
2023/03/15 03:11:20;;;;;;;;;5.50;5.25;;;;;9.14;57.49;101134.75;2095669;28;46426;-68
2023/03/15 03:12:20;;;;;;;;;6.00;6.00;;;;;9.11;57.56;101142.72;2096564;28;48140;-68
2023/03/15 03:13:20;;;;;;;;;4.33;4.33;;;;;9.09;57.61;101139.22;2096701;28;45774;-69
2023/03/15 03:14:23;;;;;;;;;3.00;3.00;;;;;9.07;57.75;101152.47;2095506;28;46500;-68
2023/03/15 03:15:23;;;;;;;;;7.40;4.60;;;;;9.05;57.82;101138.38;2087868;28;47297;-68
2023/03/15 03:16:23;;;;;;;;;5.50;4.50;;;;;9.05;57.81;101143.66;2088468;28;45571;-67
2023/03/15 03:17:24;;;;;;;;;3.67;3.67;;;;;9.05;57.62;101145.44;2093340;28;46189;-68
2023/03/15 03:18:26;;;;;;;;;3.75;3.75;;;;;9.04;57.93;101146.34;2089197;28;45443;-68
2023/03/15 03:19:26;;;;;;;;;4.20;4.00;;;;;9.04;57.82;101141.03;2093700;28;46955;-68
2023/03/15 03:20:27;;;;;;;;;4.25;4.25;;;;;9.05;57.88;101151.63;2092165;28;46611;-68
2023/03/15 03:21:27;;;;;;;;;5.25;5.00;;;;;9.05;57.83;101151.63;2090044;28;46772;-67
2023/03/15 03:22:27;;;;;;;;;4.00;3.00;;;;;9.06;57.76;101147.19;2095169;28;46173;-68
2023/03/15 03:23:29;;;;;;;;;4.00;4.00;;;;;9.05;57.93;101143.66;2096265;28;46544;-68
2023/03/15 03:24:30;;;;;;;;;5.00;5.00;;;;;9.07;57.89;101149.81;2092246;28;46519;-67
2023/03/15 03:25:32;;;;;;;;;5.67;5.67;;;;;9.08;57.76;101148.94;2092947;28;46492;-68
2023/03/15 03:26:32;;;;;;;;;6.50;4.00;;;;;9.08;58.08;101148.06;2088441;28;46639;-69
2023/03/15 03:27:35;;;;;;;;;3.67;3.00;;;;;9.09;57.75;101153.31;2092956;28;46317;-68
2023/03/15 03:28:35;;;;;;;;;3.00;3.00;;;;;9.08;57.78;101148.94;2108545;27;46723;-69
2023/03/15 03:29:36;;;;;;;;;4.33;4.33;;;;;9.09;57.73;101144.50;2099465;28;46253;-68
2023/03/15 03:30:36;;;;;;;;;3.00;2.33;;;;;9.09;57.82;101141.88;2097723;28;45536;-67
2023/03/15 03:31:37;;;;;;;;;4.67;4.67;;;;;9.09;57.75;101153.31;2107069;27;45238;-67
2023/03/15 03:32:40;;;;;;;;;5.25;5.25;;;;;9.06;57.67;101148.06;2110494;27;46230;-69
2023/03/15 03:33:40;;;;;;;;;5.00;3.75;;;;;9.05;57.65;101146.31;2110812;27;46256;-68
2023/03/15 03:34:40;;;;;;;;;3.00;3.00;;;;;9.04;57.85;101141.03;2106687;27;45117;-68
2023/03/15 03:35:41;;;;;;;;;3.00;3.00;;;;;9.02;57.90;101148.09;2111972;27;46287;-69
2023/03/15 03:36:42;;;;;;;;;4.33;4.00;;;;;9.02;57.92;101146.34;2109069;27;46912;-69
2023/03/15 03:37:42;;;;;;;;;3.20;3.20;;;;;9.02;57.95;101142.78;2109104;27;45488;-68
2023/03/15 03:38:44;;;;;;;;;4.25;3.00;;;;;9.03;57.80;101150.75;2105746;28;46336;-68
2023/03/15 03:39:45;;;;;;;;;3.25;3.00;;;;;9.03;57.71;101145.47;2100178;27;46992;-68
2023/03/15 03:40:45;;;;;;;;;4.00;3.75;;;;;9.03;57.82;101145.47;2096427;28;46482;-69
2023/03/15 03:41:46;;;;;;;;;2.00;2.00;;;;;9.02;57.76;101149.00;2093029;28;44953;-70
2023/03/15 03:42:46;;;;;;;;;3.50;2.75;;;;;9.00;57.86;101141.94;2098003;28;46272;-68
2023/03/15 03:43:46;;;;;;;;;3.00;3.00;;;;;9.00;57.83;101144.59;2110976;27;46344;-68
2023/03/15 03:44:49;;;;;;;;;2.33;2.33;;;;;9.00;57.84;101147.22;2110844;27;46687;-68
2023/03/15 03:45:49;;;;;;;;;3.00;3.00;;;;;9.00;58.02;101144.59;2109695;27;46588;-67
2023/03/15 03:46:49;;;;;;;;;3.00;3.00;;;;;8.99;57.51;101148.13;2114322;27;45242;-67
2023/03/15 03:47:50;;;;;;;;;3.67;3.67;;;;;8.98;57.97;101141.94;2109838;27;47113;-68
2023/03/15 03:48:50;;;;;;;;;4.00;4.00;;;;;8.98;57.92;101146.38;2102206;28;45106;-68
2023/03/15 03:49:51;;;;;;;;;4.25;4.25;;;;;8.98;58.22;101147.25;2101599;27;46332;-68
2023/03/15 03:50:51;;;;;;;;;3.67;3.67;;;;;8.98;58.12;101152.53;2088190;28;46623;-69
2023/03/15 03:51:51;;;;;;;;;3.00;3.00;;;;;8.99;58.03;101142.81;2093421;28;46147;-68
2023/03/15 03:52:52;;;;;;;;;1.00;0.00;;;;;8.99;58.03;101142.81;2108725;27;45261;-67
2023/03/15 03:53:52;;;;;;;;;4.33;3.00;;;;;9.01;58.06;101143.69;2108004;27;46647;-68
2023/03/15 03:54:53;;;;;;;;;3.00;2.00;;;;;9.01;58.19;101141.91;2110877;27;46027;-68
2023/03/15 03:55:53;;;;;;;;;4.00;4.00;;;;;9.02;58.13;101149.00;2107096;27;45229;-69
2023/03/15 03:56:53;;;;;;;;;2.67;2.67;;;;;9.02;58.14;101149.00;2114326;27;45962;-68
2023/03/15 03:57:54;;;;;;;;;4.33;4.00;;;;;9.04;58.29;101146.34;2114176;27;46837;-68
2023/03/15 03:58:55;;;;;;;;;3.25;3.25;;;;;9.05;58.29;101153.38;2106383;27;45642;-68
2023/03/15 03:59:57;;;;;;;;;2.00;2.00;;;;;9.05;58.09;101153.38;2111083;27;46158;-67
2023/03/15 04:00:58;;;;;;;;;4.75;4.00;;;;;9.05;58.26;101151.63;2108477;27;46719;-68
2023/03/15 04:01:58;;;;;;;;;3.00;3.00;;;;;9.06;58.23;101150.72;2107714;27;46249;-69
2023/03/15 04:02:58;;;;;;;;;3.00;3.00;;;;;9.07;58.23;101159.53;2101944;28;45242;-69
2023/03/15 04:03:59;;;;;;;;;3.67;3.67;;;;;9.07;57.99;101151.59;2097170;28;46771;-68
2023/03/15 04:04:59;;;;;;;;;4.00;4.00;;;;;9.07;58.25;101155.13;2109717;27;46179;-68
2023/03/15 04:06:00;;;;;;;;;5.33;4.33;;;;;9.08;58.14;101158.63;2106389;27;46554;-68
2023/03/15 04:07:00;;;;;;;;;5.33;3.00;;;;;9.07;58.35;101163.06;2106127;27;46076;-68
2023/03/15 04:08:00;;;;;;;;;4.00;4.00;;;;;9.08;58.20;101156.00;2110886;27;46840;-68
2023/03/15 04:09:04;;;;;;;;;5.00;3.33;;;;;9.09;58.32;101155.97;2106348;27;45980;-67
2023/03/15 04:10:04;;;;;;;;;3.75;3.75;;;;;9.10;58.28;101162.16;2105170;28;46445;-68
2023/03/15 04:11:05;;;;;;;;;4.00;4.00;;;;;9.10;58.23;101167.44;2110791;27;46152;-68
2023/03/15 04:12:06;;;;;;;;;3.00;3.00;;;;;9.10;58.41;101167.44;2113814;27;46139;-68
2023/03/15 04:13:06;;;;;;;;;4.67;4.67;;;;;9.12;58.19;101165.66;2099828;28;46610;-69
2023/03/15 04:14:07;;;;;;;;;5.00;4.00;;;;;9.12;58.15;101163.88;2091029;28;46608;-68
2023/03/15 04:15:08;;;;;;;;;5.00;5.00;;;;;9.12;58.19;101169.19;2097347;28;46093;-69
2023/03/15 04:16:08;;;;;;;;;2.75;2.00;;;;;9.13;58.14;101170.06;2090442;28;46456;-67
2023/03/15 04:17:09;;;;;;;;;6.67;5.67;;;;;9.13;58.21;101163.00;2099840;28;46105;-68
2023/03/15 04:18:09;;;;;;;;;3.00;3.00;;;;;9.13;58.27;101165.63;2090295;28;46307;-69
2023/03/15 04:19:11;;;;;;;;;4.33;4.33;;;;;9.12;58.39;101163.00;2103076;28;46784;-68
2023/03/15 04:20:12;;;;;;;;;3.50;3.50;;;;;9.11;58.08;101159.47;2106579;27;45974;-69
2023/03/15 04:21:12;;;;;;;;;2.00;2.00;;;;;9.11;58.16;101161.25;2109513;27;46558;-68
2023/03/15 04:22:14;;;;;;;;;4.25;4.25;;;;;9.10;58.13;101163.03;2111106;27;45789;-68
2023/03/15 04:23:17;;;;;;;;;4.00;3.75;;;;;9.11;58.16;101158.59;2107721;27;47017;-68
2023/03/15 04:24:18;;;;;;;;;2.25;2.25;;;;;9.10;58.31;101159.50;2111952;27;45857;-68
2023/03/15 04:25:19;;;;;;;;;5.00;5.00;;;;;9.11;58.13;101170.06;2105698;27;45693;-68
2023/03/15 04:26:19;;;;;;;;;3.50;3.50;;;;;9.11;58.22;101161.25;2105105;28;46436;-68
2023/03/15 04:27:20;;;;;;;;;3.00;3.00;;;;;9.10;58.51;101160.38;2112616;27;46618;-68
2023/03/15 04:28:21;;;;;;;;;6.67;4.00;;;;;9.11;58.49;101161.25;2107807;27;46525;-68
2023/03/15 04:29:22;;;;;;;;;3.25;3.25;;;;;9.11;58.58;101158.59;2110085;27;46482;-68
2023/03/15 04:30:25;;;;;;;;;4.33;4.33;;;;;9.12;58.42;101155.94;2098798;28;46851;-68
2023/03/15 04:31:26;;;;;;;;;2.00;2.00;;;;;9.12;58.34;101153.28;2098672;27;46726;-68
2023/03/15 04:32:26;;;;;;;;;5.00;3.00;;;;;9.13;58.56;101155.03;2113473;27;45647;-69
2023/03/15 04:33:27;;;;;;;;;2.33;2.33;;;;;9.13;58.33;101155.03;2109877;27;46471;-69
2023/03/15 04:34:28;;;;;;;;;3.00;3.00;;;;;9.14;58.51;101153.28;2109647;27;46749;-67
2023/03/15 04:35:31;;;;;;;;;2.50;2.50;;;;;9.15;58.42;101155.06;2113166;27;46231;-69
2023/03/15 04:36:31;;;;;;;;;4.25;3.50;;;;;9.14;58.62;101148.84;2108535;27;46181;-68
2023/03/15 04:37:32;;;;;;;;;3.67;3.00;;;;;9.15;58.42;101152.41;2111258;27;46494;-68
2023/03/15 04:38:34;;;;;;;;;4.67;3.67;;;;;9.14;58.26;101156.81;2102021;28;46248;-68
2023/03/15 04:39:34;;;;;;;;;5.00;2.75;;;;;9.14;58.33;101150.63;2099285;27;46845;-68
2023/03/15 04:40:35;;;;;;;;;5.00;3.00;;;;;9.14;58.40;101148.84;2113916;27;46206;-68
2023/03/15 04:41:35;;;;;;;;;6.25;4.75;;;;;9.12;58.54;101150.66;2113690;27;47204;-69
2023/03/15 04:42:35;;;;;;;;;3.67;2.33;;;;;9.12;58.25;101152.41;2108865;27;47089;-68
2023/03/15 04:43:36;;;;;;;;;3.33;3.00;;;;;9.10;58.56;101159.50;2106238;27;46452;-69
2023/03/15 04:44:36;;;;;;;;;3.00;3.00;;;;;9.08;58.66;101153.34;2109117;27;45564;-69
2023/03/15 04:45:36;;;;;;;;;5.00;4.00;;;;;9.08;58.62;101153.34;2110846;27;46629;-69
2023/03/15 04:46:37;;;;;;;;;1.33;1.33;;;;;9.07;58.51;101154.25;2112876;27;45985;-66
2023/03/15 04:47:37;;;;;;;;;4.00;3.00;;;;;9.04;58.40;101157.81;2109898;27;45869;-68
2023/03/15 04:48:37;;;;;;;;;2.00;2.00;;;;;9.02;58.44;101154.28;2112477;27;45735;-72
2023/03/15 04:49:38;;;;;;;;;2.00;2.00;;;;;9.02;58.66;101158.69;2108030;27;46832;-69
2023/03/15 04:50:38;;;;;;;;;3.67;2.67;;;;;9.00;58.66;101156.03;2108203;27;45657;-70